Weather at Žatec-Macerka Airfield

Public forecast

Using degrees Celsius for public forecast. Weather courtesy of forecast.io.

Closest aviation weather report (METAR) to Žatec-Macerka Airfield

Closest report is Karlovy Vary International Airport, 24.0 nm (44.4 km) WSW. Retrieved 2021/08/04 07:00 UTC (6 minutes ago):

LKKV 040700Z 26003KT 220V290 9999 BKN007 14/12 Q1015

Closest aviation forecast (TAF) to Žatec-Macerka Airfield

Closest forecast is Karlovy Vary International Airport, 24.0 nm (44.4 km) WSW. Retrieved 2021/08/04 06:16 UTC (50 minutes ago):

TAF LKKV 040500Z 0406/0512 24005KT 9999 BKN025 TEMPO 0406/0409 7000 -RA BKN012 TEMPO 0409/0418 8000 -SHRA SCT020TCU PROB30 TEMPO 0506/0512 6000 SHRA SCT010TCU BKN012